sensor_id;sensor_type;location;lat;lon;timestamp;P1;durP1;ratioP1;P2;durP2;ratioP2
40373;SDS011;26079;45.958;12.492;2024-01-07T00:00:19;0.25;;;0.22;;
40373;SDS011;26079;45.958;12.492;2024-01-07T00:02:45;0.10;;;0.10;;
40373;SDS011;26079;45.958;12.492;2024-01-07T00:05:11;0.13;;;0.10;;
40373;SDS011;26079;45.958;12.492;2024-01-07T00:07:37;0.85;;;0.68;;
40373;SDS011;26079;45.958;12.492;2024-01-07T00:10:03;4.80;;;2.78;;
40373;SDS011;26079;45.958;12.492;2024-01-07T00:12:29;8.68;;;5.97;;
40373;SDS011;26079;45.958;12.492;2024-01-07T00:14:54;4.35;;;2.47;;
40373;SDS011;26079;45.958;12.492;2024-01-07T00:17:20;0.47;;;0.35;;
40373;SDS011;26079;45.958;12.492;2024-01-07T00:19:46;0.68;;;0.28;;
40373;SDS011;26079;45.958;12.492;2024-01-07T00:22:11;0.25;;;0.17;;
40373;SDS011;26079;45.958;12.492;2024-01-07T00:24:37;1.00;;;0.30;;
40373;SDS011;26079;45.958;12.492;2024-01-07T00:27:03;0.85;;;0.55;;
40373;SDS011;26079;45.958;12.492;2024-01-07T00:29:29;0.30;;;0.20;;
40373;SDS011;26079;45.958;12.492;2024-01-07T00:31:55;0.50;;;0.30;;
40373;SDS011;26079;45.958;12.492;2024-01-07T00:34:21;3.15;;;2.83;;
40373;SDS011;26079;45.958;12.492;2024-01-07T00:36:46;0.82;;;0.50;;
40373;SDS011;26079;45.958;12.492;2024-01-07T00:39:12;1.02;;;0.80;;
40373;SDS011;26079;45.958;12.492;2024-01-07T00:41:37;1.00;;;0.70;;
40373;SDS011;26079;45.958;12.492;2024-01-07T00:44:03;1.17;;;0.73;;
40373;SDS011;26079;45.958;12.492;2024-01-07T00:46:29;2.63;;;0.80;;
40373;SDS011;26079;45.958;12.492;2024-01-07T00:48:55;1.58;;;1.25;;
40373;SDS011;26079;45.958;12.492;2024-01-07T00:51:20;0.70;;;0.70;;
40373;SDS011;26079;45.958;12.492;2024-01-07T00:53:46;1.05;;;0.75;;
40373;SDS011;26079;45.958;12.492;2024-01-07T00:56:11;0.98;;;0.70;;
40373;SDS011;26079;45.958;12.492;2024-01-07T00:58:37;1.75;;;1.15;;
40373;SDS011;26079;45.958;12.492;2024-01-07T01:01:03;1.50;;;1.17;;
40373;SDS011;26079;45.958;12.492;2024-01-07T01:03:28;1.63;;;1.17;;
40373;SDS011;26079;45.958;12.492;2024-01-07T01:05:54;2.00;;;1.30;;
40373;SDS011;26079;45.958;12.492;2024-01-07T01:08:20;3.45;;;1.25;;
40373;SDS011;26079;45.958;12.492;2024-01-07T01:10:45;1.58;;;1.08;;
40373;SDS011;26079;45.958;12.492;2024-01-07T01:13:11;1.55;;;1.25;;
40373;SDS011;26079;45.958;12.492;2024-01-07T01:15:37;1.77;;;0.98;;
40373;SDS011;26079;45.958;12.492;2024-01-07T01:18:03;0.82;;;0.80;;
40373;SDS011;26079;45.958;12.492;2024-01-07T01:20:28;0.68;;;0.68;;
40373;SDS011;26079;45.958;12.492;2024-01-07T01:22:54;2.05;;;1.10;;
40373;SDS011;26079;45.958;12.492;2024-01-07T01:25:20;1.45;;;0.82;;
40373;SDS011;26079;45.958;12.492;2024-01-07T01:27:45;1.48;;;0.75;;
40373;SDS011;26079;45.958;12.492;2024-01-07T01:30:11;0.98;;;0.85;;
40373;SDS011;26079;45.958;12.492;2024-01-07T01:32:38;1.63;;;0.77;;
40373;SDS011;26079;45.958;12.492;2024-01-07T01:35:04;1.30;;;0.95;;
40373;SDS011;26079;45.958;12.492;2024-01-07T01:37:30;1.98;;;0.75;;
40373;SDS011;26079;45.958;12.492;2024-01-07T01:39:58;1.50;;;1.27;;
40373;SDS011;26079;45.958;12.492;2024-01-07T01:42:23;1.02;;;0.90;;
40373;SDS011;26079;45.958;12.492;2024-01-07T01:44:50;1.17;;;0.80;;
40373;SDS011;26079;45.958;12.492;2024-01-07T01:47:17;0.93;;;0.73;;
40373;SDS011;26079;45.958;12.492;2024-01-07T01:49:43;1.02;;;0.93;;
40373;SDS011;26079;45.958;12.492;2024-01-07T01:52:10;0.80;;;0.68;;
40373;SDS011;26079;45.958;12.492;2024-01-07T01:54:37;1.35;;;0.65;;
40373;SDS011;26079;45.958;12.492;2024-01-07T01:57:03;1.50;;;0.68;;
40373;SDS011;26079;45.958;12.492;2024-01-07T01:59:29;1.70;;;0.90;;
40373;SDS011;26079;45.958;12.492;2024-01-07T02:01:57;0.95;;;0.80;;
40373;SDS011;26079;45.958;12.492;2024-01-07T02:04:22;1.70;;;1.15;;
40373;SDS011;26079;45.958;12.492;2024-01-07T02:06:48;1.08;;;0.90;;
40373;SDS011;26079;45.958;12.492;2024-01-07T02:09:14;1.30;;;0.85;;
40373;SDS011;26079;45.958;12.492;2024-01-07T02:11:39;2.42;;;1.02;;
40373;SDS011;26079;45.958;12.492;2024-01-07T02:14:05;2.40;;;0.98;;
40373;SDS011;26079;45.958;12.492;2024-01-07T02:16:31;0.73;;;0.65;;
40373;SDS011;26079;45.958;12.492;2024-01-07T02:18:56;1.15;;;0.50;;
40373;SDS011;26079;45.958;12.492;2024-01-07T02:21:22;3.53;;;0.70;;
40373;SDS011;26079;45.958;12.492;2024-01-07T02:23:48;0.57;;;0.30;;
40373;SDS011;26079;45.958;12.492;2024-01-07T02:26:13;1.13;;;0.57;;
40373;SDS011;26079;45.958;12.492;2024-01-07T02:28:39;0.90;;;0.40;;
40373;SDS011;26079;45.958;12.492;2024-01-07T02:31:05;0.70;;;0.40;;
40373;SDS011;26079;45.958;12.492;2024-01-07T02:33:30;0.47;;;0.47;;
40373;SDS011;26079;45.958;12.492;2024-01-07T02:35:56;2.65;;;0.65;;
40373;SDS011;26079;45.958;12.492;2024-01-07T02:38:22;0.60;;;0.50;;
40373;SDS011;26079;45.958;12.492;2024-01-07T02:40:48;1.25;;;0.68;;
40373;SDS011;26079;45.958;12.492;2024-01-07T02:43:13;0.70;;;0.60;;
40373;SDS011;26079;45.958;12.492;2024-01-07T02:45:39;2.13;;;0.70;;
40373;SDS011;26079;45.958;12.492;2024-01-07T02:48:05;0.60;;;0.50;;
40373;SDS011;26079;45.958;12.492;2024-01-07T02:50:31;0.40;;;0.32;;
40373;SDS011;26079;45.958;12.492;2024-01-07T02:52:57;0.85;;;0.40;;
40373;SDS011;26079;45.958;12.492;2024-01-07T02:55:23;0.47;;;0.47;;
40373;SDS011;26079;45.958;12.492;2024-01-07T02:57:48;0.90;;;0.80;;
40373;SDS011;26079;45.958;12.492;2024-01-07T03:00:14;0.47;;;0.47;;
40373;SDS011;26079;45.958;12.492;2024-01-07T03:02:40;0.80;;;0.68;;
40373;SDS011;26079;45.958;12.492;2024-01-07T03:05:06;1.48;;;0.68;;
40373;SDS011;26079;45.958;12.492;2024-01-07T03:07:32;0.50;;;0.50;;
40373;SDS011;26079;45.958;12.492;2024-01-07T03:09:57;0.93;;;0.40;;
40373;SDS011;26079;45.958;12.492;2024-01-07T03:12:23;0.63;;;0.38;;
40373;SDS011;26079;45.958;12.492;2024-01-07T03:14:48;0.20;;;0.20;;
40373;SDS011;26079;45.958;12.492;2024-01-07T03:17:14;0.60;;;0.30;;
40373;SDS011;26079;45.958;12.492;2024-01-07T03:19:42;0.00;;;0.00;;
40373;SDS011;26079;45.958;12.492;2024-01-07T03:22:08;0.22;;;0.20;;
40373;SDS011;26079;45.958;12.492;2024-01-07T03:24:33;0.15;;;0.13;;
40373;SDS011;26079;45.958;12.492;2024-01-07T03:26:59;0.38;;;0.30;;
40373;SDS011;26079;45.958;12.492;2024-01-07T03:29:25;0.80;;;0.40;;
40373;SDS011;26079;45.958;12.492;2024-01-07T03:31:50;0.25;;;0.20;;
40373;SDS011;26079;45.958;12.492;2024-01-07T03:34:18;0.40;;;0.30;;
40373;SDS011;26079;45.958;12.492;2024-01-07T03:36:44;0.00;;;0.00;;
40373;SDS011;26079;45.958;12.492;2024-01-07T03:39:09;2.10;;;0.30;;
40373;SDS011;26079;45.958;12.492;2024-01-07T03:41:35;0.15;;;0.15;;
40373;SDS011;26079;45.958;12.492;2024-01-07T03:44:01;0.70;;;0.15;;
40373;SDS011;26079;45.958;12.492;2024-01-07T03:46:27;0.30;;;0.20;;
40373;SDS011;26079;45.958;12.492;2024-01-07T03:48:52;1.17;;;0.47;;
40373;SDS011;26079;45.958;12.492;2024-01-07T03:51:18;0.90;;;0.55;;
40373;SDS011;26079;45.958;12.492;2024-01-07T03:53:44;1.27;;;0.35;;
40373;SDS011;26079;45.958;12.492;2024-01-07T03:56:09;5.03;;;0.63;;
40373;SDS011;26079;45.958;12.492;2024-01-07T03:58:35;0.50;;;0.50;;
40373;SDS011;26079;45.958;12.492;2024-01-07T04:01:01;0.43;;;0.30;;
40373;SDS011;26079;45.958;12.492;2024-01-07T04:03:27;0.32;;;0.20;;
40373;SDS011;26079;45.958;12.492;2024-01-07T04:05:52;0.57;;;0.30;;
40373;SDS011;26079;45.958;12.492;2024-01-07T04:08:18;1.20;;;0.98;;
40373;SDS011;26079;45.958;12.492;2024-01-07T04:10:44;0.22;;;0.13;;
40373;SDS011;26079;45.958;12.492;2024-01-07T04:13:09;0.32;;;0.10;;
40373;SDS011;26079;45.958;12.492;2024-01-07T04:15:35;0.10;;;0.10;;
40373;SDS011;26079;45.958;12.492;2024-01-07T04:18:01;0.88;;;0.20;;
40373;SDS011;26079;45.958;12.492;2024-01-07T04:20:28;0.57;;;0.20;;
40373;SDS011;26079;45.958;12.492;2024-01-07T04:22:54;0.20;;;0.20;;
40373;SDS011;26079;45.958;12.492;2024-01-07T04:25:20;0.17;;;0.17;;
40373;SDS011;26079;45.958;12.492;2024-01-07T04:27:46;0.20;;;0.20;;
40373;SDS011;26079;45.958;12.492;2024-01-07T04:30:11;0.17;;;0.17;;
40373;SDS011;26079;45.958;12.492;2024-01-07T04:32:37;0.20;;;0.10;;
40373;SDS011;26079;45.958;12.492;2024-01-07T04:35:03;1.00;;;0.38;;
40373;SDS011;26079;45.958;12.492;2024-01-07T04:37:29;0.30;;;0.13;;
40373;SDS011;26079;45.958;12.492;2024-01-07T04:39:55;0.20;;;0.10;;
40373;SDS011;26079;45.958;12.492;2024-01-07T04:42:20;0.40;;;0.40;;
40373;SDS011;26079;45.958;12.492;2024-01-07T04:44:46;0.35;;;0.28;;
40373;SDS011;26079;45.958;12.492;2024-01-07T04:47:27;0.60;;;0.50;;
40373;SDS011;26079;45.958;12.492;2024-01-07T04:49:55;0.95;;;0.10;;
40373;SDS011;26079;45.958;12.492;2024-01-07T04:52:24;0.00;;;0.00;;
40373;SDS011;26079;45.958;12.492;2024-01-07T04:54:51;0.30;;;0.20;;
40373;SDS011;26079;45.958;12.492;2024-01-07T04:57:17;0.30;;;0.30;;
40373;SDS011;26079;45.958;12.492;2024-01-07T04:59:43;0.57;;;0.20;;
40373;SDS011;26079;45.958;12.492;2024-01-07T05:02:10;0.10;;;0.00;;
40373;SDS011;26079;45.958;12.492;2024-01-07T05:04:36;0.10;;;0.10;;
40373;SDS011;26079;45.958;12.492;2024-01-07T05:07:02;0.08;;;0.08;;
40373;SDS011;26079;45.958;12.492;2024-01-07T05:09:28;0.90;;;0.10;;
40373;SDS011;26079;45.958;12.492;2024-01-07T05:11:54;0.20;;;0.20;;
40373;SDS011;26079;45.958;12.492;2024-01-07T05:14:19;0.32;;;0.10;;
40373;SDS011;26079;45.958;12.492;2024-01-07T05:16:47;0.30;;;0.20;;
40373;SDS011;26079;45.958;12.492;2024-01-07T05:19:13;0.25;;;0.10;;
40373;SDS011;26079;45.958;12.492;2024-01-07T05:21:39;0.47;;;0.30;;
40373;SDS011;26079;45.958;12.492;2024-01-07T05:24:04;0.45;;;0.25;;
40373;SDS011;26079;45.958;12.492;2024-01-07T05:26:30;0.13;;;0.10;;
40373;SDS011;26079;45.958;12.492;2024-01-07T05:28:56;0.08;;;0.05;;
40373;SDS011;26079;45.958;12.492;2024-01-07T05:31:21;0.17;;;0.10;;
40373;SDS011;26079;45.958;12.492;2024-01-07T05:33:47;0.20;;;0.20;;
40373;SDS011;26079;45.958;12.492;2024-01-07T05:36:13;0.57;;;0.00;;
40373;SDS011;26079;45.958;12.492;2024-01-07T05:38:41;2.47;;;0.13;;
40373;SDS011;26079;45.958;12.492;2024-01-07T05:41:06;3.55;;;0.60;;
40373;SDS011;26079;45.958;12.492;2024-01-07T05:43:32;0.20;;;0.13;;
40373;SDS011;26079;45.958;12.492;2024-01-07T05:45:59;1.27;;;0.05;;
40373;SDS011;26079;45.958;12.492;2024-01-07T05:48:26;0.38;;;0.32;;
40373;SDS011;26079;45.958;12.492;2024-01-07T05:50:52;1.55;;;0.30;;
40373;SDS011;26079;45.958;12.492;2024-01-07T05:53:18;0.30;;;0.20;;
40373;SDS011;26079;45.958;12.492;2024-01-07T05:55:43;0.25;;;0.25;;
40373;SDS011;26079;45.958;12.492;2024-01-07T05:58:09;0.77;;;0.10;;
40373;SDS011;26079;45.958;12.492;2024-01-07T06:00:35;0.20;;;0.10;;
40373;SDS011;26079;45.958;12.492;2024-01-07T06:03:01;1.63;;;1.40;;
40373;SDS011;26079;45.958;12.492;2024-01-07T06:05:26;2.55;;;2.35;;
40373;SDS011;26079;45.958;12.492;2024-01-07T06:07:52;1.55;;;1.13;;
40373;SDS011;26079;45.958;12.492;2024-01-07T06:10:18;1.38;;;1.15;;
40373;SDS011;26079;45.958;12.492;2024-01-07T06:12:44;1.30;;;1.20;;
40373;SDS011;26079;45.958;12.492;2024-01-07T06:15:10;1.95;;;0.80;;
40373;SDS011;26079;45.958;12.492;2024-01-07T06:17:36;1.08;;;0.98;;
40373;SDS011;26079;45.958;12.492;2024-01-07T06:20:01;1.10;;;0.80;;
40373;SDS011;26079;45.958;12.492;2024-01-07T06:22:27;1.52;;;1.05;;
40373;SDS011;26079;45.958;12.492;2024-01-07T06:24:53;0.95;;;0.77;;
40373;SDS011;26079;45.958;12.492;2024-01-07T06:27:19;1.95;;;1.25;;
40373;SDS011;26079;45.958;12.492;2024-01-07T06:29:44;0.82;;;0.80;;
40373;SDS011;26079;45.958;12.492;2024-01-07T06:32:11;2.60;;;1.23;;
40373;SDS011;26079;45.958;12.492;2024-01-07T06:34:36;0.73;;;0.63;;
40373;SDS011;26079;45.958;12.492;2024-01-07T06:37:02;2.97;;;0.93;;
40373;SDS011;26079;45.958;12.492;2024-01-07T06:39:28;1.58;;;1.45;;
40373;SDS011;26079;45.958;12.492;2024-01-07T06:41:54;1.30;;;1.20;;
40373;SDS011;26079;45.958;12.492;2024-01-07T06:44:20;1.55;;;1.42;;
40373;SDS011;26079;45.958;12.492;2024-01-07T06:46:48;1.90;;;1.27;;
40373;SDS011;26079;45.958;12.492;2024-01-07T06:49:14;2.13;;;1.92;;
40373;SDS011;26079;45.958;12.492;2024-01-07T06:51:40;4.22;;;1.65;;
40373;SDS011;26079;45.958;12.492;2024-01-07T06:54:06;4.05;;;0.90;;
40373;SDS011;26079;45.958;12.492;2024-01-07T06:56:42;1.20;;;0.90;;
40373;SDS011;26079;45.958;12.492;2024-01-07T06:59:15;0.50;;;0.43;;
40373;SDS011;26079;45.958;12.492;2024-01-07T07:01:41;0.50;;;0.40;;
40373;SDS011;26079;45.958;12.492;2024-01-07T07:04:09;2.67;;;0.35;;
40373;SDS011;26079;45.958;12.492;2024-01-07T07:06:35;0.38;;;0.30;;
40373;SDS011;26079;45.958;12.492;2024-01-07T07:09:09;1.17;;;0.80;;
40373;SDS011;26079;45.958;12.492;2024-01-07T07:11:40;4.82;;;2.58;;
40373;SDS011;26079;45.958;12.492;2024-01-07T07:14:18;4.57;;;3.95;;
40373;SDS011;26079;45.958;12.492;2024-01-07T07:16:44;5.38;;;4.43;;
40373;SDS011;26079;45.958;12.492;2024-01-07T07:19:14;3.47;;;2.65;;
40373;SDS011;26079;45.958;12.492;2024-01-07T07:21:43;3.00;;;1.20;;
40373;SDS011;26079;45.958;12.492;2024-01-07T07:24:11;3.92;;;2.45;;
40373;SDS011;26079;45.958;12.492;2024-01-07T07:26:41;1.80;;;1.52;;
40373;SDS011;26079;45.958;12.492;2024-01-07T07:29:12;4.03;;;1.97;;
40373;SDS011;26079;45.958;12.492;2024-01-07T07:31:40;2.05;;;1.35;;
40373;SDS011;26079;45.958;12.492;2024-01-07T07:34:09;0.32;;;0.30;;
40373;SDS011;26079;45.958;12.492;2024-01-07T07:36:36;0.20;;;0.10;;
40373;SDS011;26079;45.958;12.492;2024-01-07T07:39:05;3.45;;;2.13;;
40373;SDS011;26079;45.958;12.492;2024-01-07T07:41:34;2.83;;;1.40;;
40373;SDS011;26079;45.958;12.492;2024-01-07T07:46:33;4.45;;;2.58;;
40373;SDS011;26079;45.958;12.492;2024-01-07T07:48:59;2.28;;;1.70;;
40373;SDS011;26079;45.958;12.492;2024-01-07T07:51:26;4.55;;;2.72;;
40373;SDS011;26079;45.958;12.492;2024-01-07T07:53:52;6.78;;;5.93;;
40373;SDS011;26079;45.958;12.492;2024-01-07T07:56:18;2.55;;;1.25;;
40373;SDS011;26079;45.958;12.492;2024-01-07T07:58:43;2.85;;;2.65;;
40373;SDS011;26079;45.958;12.492;2024-01-07T08:01:09;0.77;;;0.60;;
40373;SDS011;26079;45.958;12.492;2024-01-07T08:03:35;0.90;;;0.30;;
40373;SDS011;26079;45.958;12.492;2024-01-07T08:06:01;0.40;;;0.30;;
40373;SDS011;26079;45.958;12.492;2024-01-07T08:08:27;0.25;;;0.25;;
40373;SDS011;26079;45.958;12.492;2024-01-07T08:10:53;0.80;;;0.70;;
40373;SDS011;26079;45.958;12.492;2024-01-07T08:13:19;0.77;;;0.47;;
40373;SDS011;26079;45.958;12.492;2024-01-07T08:15:45;0.20;;;0.20;;
40373;SDS011;26079;45.958;12.492;2024-01-07T08:18:10;0.98;;;0.60;;
40373;SDS011;26079;45.958;12.492;2024-01-07T08:20:36;0.40;;;0.40;;
40373;SDS011;26079;45.958;12.492;2024-01-07T08:23:02;0.60;;;0.47;;
40373;SDS011;26079;45.958;12.492;2024-01-07T08:25:28;0.80;;;0.47;;
40373;SDS011;26079;45.958;12.492;2024-01-07T08:27:53;0.70;;;0.52;;
40373;SDS011;26079;45.958;12.492;2024-01-07T08:30:19;2.92;;;2.22;;
40373;SDS011;26079;45.958;12.492;2024-01-07T08:32:45;2.20;;;1.30;;
40373;SDS011;26079;45.958;12.492;2024-01-07T08:35:11;2.45;;;1.95;;
40373;SDS011;26079;45.958;12.492;2024-01-07T08:37:37;1.55;;;1.33;;
40373;SDS011;26079;45.958;12.492;2024-01-07T08:40:02;1.20;;;0.88;;
40373;SDS011;26079;45.958;12.492;2024-01-07T08:42:31;0.93;;;0.85;;
40373;SDS011;26079;45.958;12.492;2024-01-07T08:44:57;0.60;;;0.60;;
40373;SDS011;26079;45.958;12.492;2024-01-07T08:47:25;1.25;;;1.08;;
40373;SDS011;26079;45.958;12.492;2024-01-07T08:49:51;2.35;;;2.15;;
40373;SDS011;26079;45.958;12.492;2024-01-07T08:52:18;1.48;;;1.13;;
40373;SDS011;26079;45.958;12.492;2024-01-07T08:54:44;1.23;;;1.10;;
40373;SDS011;26079;45.958;12.492;2024-01-07T08:57:10;2.28;;;1.80;;
40373;SDS011;26079;45.958;12.492;2024-01-07T08:59:39;4.55;;;4.15;;
40373;SDS011;26079;45.958;12.492;2024-01-07T09:02:04;5.35;;;3.95;;
40373;SDS011;26079;45.958;12.492;2024-01-07T09:04:30;3.38;;;3.05;;
40373;SDS011;26079;45.958;12.492;2024-01-07T09:06:57;3.72;;;3.22;;
40373;SDS011;26079;45.958;12.492;2024-01-07T09:09:23;4.07;;;3.67;;
40373;SDS011;26079;45.958;12.492;2024-01-07T09:11:49;10.07;;;7.55;;
40373;SDS011;26079;45.958;12.492;2024-01-07T09:14:14;48.67;;;43.70;;
40373;SDS011;26079;45.958;12.492;2024-01-07T09:16:40;56.05;;;49.65;;
40373;SDS011;26079;45.958;12.492;2024-01-07T09:19:07;7.25;;;4.85;;
40373;SDS011;26079;45.958;12.492;2024-01-07T09:21:33;7.75;;;6.93;;
40373;SDS011;26079;45.958;12.492;2024-01-07T09:23:59;15.45;;;6.38;;
40373;SDS011;26079;45.958;12.492;2024-01-07T09:26:24;10.77;;;5.75;;
40373;SDS011;26079;45.958;12.492;2024-01-07T09:28:50;3.63;;;3.28;;
40373;SDS011;26079;45.958;12.492;2024-01-07T09:31:18;5.47;;;2.90;;
40373;SDS011;26079;45.958;12.492;2024-01-07T09:33:44;15.35;;;6.05;;
40373;SDS011;26079;45.958;12.492;2024-01-07T09:36:10;8.68;;;6.28;;
40373;SDS011;26079;45.958;12.492;2024-01-07T09:38:35;9.60;;;8.23;;
40373;SDS011;26079;45.958;12.492;2024-01-07T09:41:01;6.10;;;3.90;;
40373;SDS011;26079;45.958;12.492;2024-01-07T09:43:27;8.50;;;6.50;;
40373;SDS011;26079;45.958;12.492;2024-01-07T09:45:53;8.50;;;6.57;;
40373;SDS011;26079;45.958;12.492;2024-01-07T09:48:22;7.93;;;7.13;;
40373;SDS011;26079;45.958;12.492;2024-01-07T09:50:48;3.75;;;2.28;;
40373;SDS011;26079;45.958;12.492;2024-01-07T09:53:17;2.95;;;2.63;;
40373;SDS011;26079;45.958;12.492;2024-01-07T09:56:02;8.02;;;6.88;;
40373;SDS011;26079;45.958;12.492;2024-01-07T09:58:38;2.72;;;2.05;;
40373;SDS011;26079;45.958;12.492;2024-01-07T10:01:06;3.72;;;2.47;;
40373;SDS011;26079;45.958;12.492;2024-01-07T10:03:32;2.28;;;2.03;;
40373;SDS011;26079;45.958;12.492;2024-01-07T10:05:58;3.25;;;2.95;;
40373;SDS011;26079;45.958;12.492;2024-01-07T10:08:24;5.60;;;4.97;;
40373;SDS011;26079;45.958;12.492;2024-01-07T10:10:49;3.20;;;2.90;;
40373;SDS011;26079;45.958;12.492;2024-01-07T10:13:15;2.10;;;1.80;;
40373;SDS011;26079;45.958;12.492;2024-01-07T10:15:41;7.28;;;6.55;;
40373;SDS011;26079;45.958;12.492;2024-01-07T10:18:07;3.38;;;2.47;;
40373;SDS011;26079;45.958;12.492;2024-01-07T10:20:34;4.40;;;2.63;;
40373;SDS011;26079;45.958;12.492;2024-01-07T10:23:01;2.83;;;2.53;;
40373;SDS011;26079;45.958;12.492;2024-01-07T10:25:28;2.97;;;2.70;;
40373;SDS011;26079;45.958;12.492;2024-01-07T10:28:00;4.43;;;2.00;;
40373;SDS011;26079;45.958;12.492;2024-01-07T10:30:26;4.75;;;3.05;;
40373;SDS011;26079;45.958;12.492;2024-01-07T10:32:59;4.72;;;4.30;;
40373;SDS011;26079;45.958;12.492;2024-01-07T10:35:29;3.10;;;2.75;;
40373;SDS011;26079;45.958;12.492;2024-01-07T10:38:01;6.40;;;3.33;;
40373;SDS011;26079;45.958;12.492;2024-01-07T10:40:27;4.65;;;3.05;;
40373;SDS011;26079;45.958;12.492;2024-01-07T10:42:55;3.08;;;2.45;;
40373;SDS011;26079;45.958;12.492;2024-01-07T10:45:21;4.50;;;2.63;;
40373;SDS011;26079;45.958;12.492;2024-01-07T10:47:48;2.80;;;2.47;;
40373;SDS011;26079;45.958;12.492;2024-01-07T10:50:16;3.92;;;2.60;;
40373;SDS011;26079;45.958;12.492;2024-01-07T10:52:43;4.55;;;3.40;;
40373;SDS011;26079;45.958;12.492;2024-01-07T10:55:22;61.92;;;43.20;;
40373;SDS011;26079;45.958;12.492;2024-01-07T10:57:55;62.78;;;51.33;;
40373;SDS011;26079;45.958;12.492;2024-01-07T11:00:22;18.52;;;15.43;;
40373;SDS011;26079;45.958;12.492;2024-01-07T11:02:53;11.13;;;9.30;;
40373;SDS011;26079;45.958;12.492;2024-01-07T11:08:18;5.10;;;4.53;;
40373;SDS011;26079;45.958;12.492;2024-01-07T11:10:58;8.50;;;7.60;;
40373;SDS011;26079;45.958;12.492;2024-01-07T11:13:33;9.38;;;7.63;;
40373;SDS011;26079;45.958;12.492;2024-01-07T11:16:00;9.82;;;8.55;;
40373;SDS011;26079;45.958;12.492;2024-01-07T11:18:30;13.85;;;10.35;;
40373;SDS011;26079;45.958;12.492;2024-01-07T11:21:01;12.45;;;8.48;;
40373;SDS011;26079;45.958;12.492;2024-01-07T11:23:35;7.68;;;6.88;;
40373;SDS011;26079;45.958;12.492;2024-01-07T11:26:03;9.27;;;7.28;;
40373;SDS011;26079;45.958;12.492;2024-01-07T11:31:17;20.95;;;17.10;;
40373;SDS011;26079;45.958;12.492;2024-01-07T11:33:47;14.85;;;13.20;;
40373;SDS011;26079;45.958;12.492;2024-01-07T11:36:17;12.95;;;10.68;;
40373;SDS011;26079;45.958;12.492;2024-01-07T11:38:52;14.23;;;10.63;;
40373;SDS011;26079;45.958;12.492;2024-01-07T11:41:18;14.00;;;9.75;;
40373;SDS011;26079;45.958;12.492;2024-01-07T11:43:53;11.60;;;9.30;;
40373;SDS011;26079;45.958;12.492;2024-01-07T11:46:20;13.40;;;8.95;;
40373;SDS011;26079;45.958;12.492;2024-01-07T11:48:47;11.63;;;9.00;;
40373;SDS011;26079;45.958;12.492;2024-01-07T11:51:13;9.77;;;7.53;;
40373;SDS011;26079;45.958;12.492;2024-01-07T11:53:39;8.05;;;7.22;;
40373;SDS011;26079;45.958;12.492;2024-01-07T11:56:05;8.00;;;7.18;;
40373;SDS011;26079;45.958;12.492;2024-01-07T11:58:33;10.40;;;8.20;;
40373;SDS011;26079;45.958;12.492;2024-01-07T12:00:59;12.10;;;9.15;;
40373;SDS011;26079;45.958;12.492;2024-01-07T12:03:24;9.43;;;7.10;;
40373;SDS011;26079;45.958;12.492;2024-01-07T12:05:50;9.30;;;7.82;;
40373;SDS011;26079;45.958;12.492;2024-01-07T12:08:16;9.93;;;7.95;;
40373;SDS011;26079;45.958;12.492;2024-01-07T12:10:42;9.18;;;8.23;;
40373;SDS011;26079;45.958;12.492;2024-01-07T12:13:11;8.68;;;7.78;;
40373;SDS011;26079;45.958;12.492;2024-01-07T12:15:39;8.63;;;7.40;;
40373;SDS011;26079;45.958;12.492;2024-01-07T12:18:05;9.40;;;7.32;;
40373;SDS011;26079;45.958;12.492;2024-01-07T12:20:31;9.68;;;7.72;;
40373;SDS011;26079;45.958;12.492;2024-01-07T12:22:57;7.57;;;6.88;;
40373;SDS011;26079;45.958;12.492;2024-01-07T12:25:29;23.33;;;20.98;;
40373;SDS011;26079;45.958;12.492;2024-01-07T12:27:55;12.63;;;11.32;;
40373;SDS011;26079;45.958;12.492;2024-01-07T12:30:23;7.68;;;5.85;;
40373;SDS011;26079;45.958;12.492;2024-01-07T12:32:51;5.43;;;4.30;;
40373;SDS011;26079;45.958;12.492;2024-01-07T12:35:17;5.55;;;5.05;;
40373;SDS011;26079;45.958;12.492;2024-01-07T12:37:45;6.15;;;5.50;;
40373;SDS011;26079;45.958;12.492;2024-01-07T12:40:13;7.47;;;5.32;;
40373;SDS011;26079;45.958;12.492;2024-01-07T12:42:39;8.93;;;8.02;;
40373;SDS011;26079;45.958;12.492;2024-01-07T12:45:10;9.20;;;7.13;;
40373;SDS011;26079;45.958;12.492;2024-01-07T12:47:38;6.13;;;5.53;;
40373;SDS011;26079;45.958;12.492;2024-01-07T12:50:05;6.25;;;5.38;;
40373;SDS011;26079;45.958;12.492;2024-01-07T12:52:31;7.55;;;6.40;;
40373;SDS011;26079;45.958;12.492;2024-01-07T12:54:56;7.28;;;5.57;;
40373;SDS011;26079;45.958;12.492;2024-01-07T12:57:23;6.70;;;6.00;;
40373;SDS011;26079;45.958;12.492;2024-01-07T12:59:48;6.15;;;5.60;;
40373;SDS011;26079;45.958;12.492;2024-01-07T13:02:14;6.57;;;5.38;;
40373;SDS011;26079;45.958;12.492;2024-01-07T13:04:40;5.55;;;5.05;;
40373;SDS011;26079;45.958;12.492;2024-01-07T13:07:06;6.53;;;5.50;;
40373;SDS011;26079;45.958;12.492;2024-01-07T13:09:31;5.55;;;5.05;;
40373;SDS011;26079;45.958;12.492;2024-01-07T13:11:57;6.97;;;6.03;;
40373;SDS011;26079;45.958;12.492;2024-01-07T13:14:23;6.90;;;6.25;;
40373;SDS011;26079;45.958;12.492;2024-01-07T13:16:49;7.22;;;6.40;;
40373;SDS011;26079;45.958;12.492;2024-01-07T13:19:14;7.53;;;6.78;;
40373;SDS011;26079;45.958;12.492;2024-01-07T13:21:40;6.93;;;6.20;;
40373;SDS011;26079;45.958;12.492;2024-01-07T13:24:05;7.93;;;7.13;;
40373;SDS011;26079;45.958;12.492;2024-01-07T13:26:31;17.73;;;13.18;;
40373;SDS011;26079;45.958;12.492;2024-01-07T13:28:57;12.95;;;7.90;;
40373;SDS011;26079;45.958;12.492;2024-01-07T13:31:23;7.85;;;4.88;;
40373;SDS011;26079;45.958;12.492;2024-01-07T13:33:48;6.55;;;5.57;;
40373;SDS011;26079;45.958;12.492;2024-01-07T13:36:14;7.55;;;5.32;;
40373;SDS011;26079;45.958;12.492;2024-01-07T13:38:40;8.65;;;7.05;;
40373;SDS011;26079;45.958;12.492;2024-01-07T13:41:06;4.90;;;4.40;;
40373;SDS011;26079;45.958;12.492;2024-01-07T13:43:35;4.60;;;4.20;;
40373;SDS011;26079;45.958;12.492;2024-01-07T13:46:03;6.57;;;5.80;;
40373;SDS011;26079;45.958;12.492;2024-01-07T13:48:29;7.72;;;5.22;;
40373;SDS011;26079;45.958;12.492;2024-01-07T13:50:55;5.78;;;5.20;;
40373;SDS011;26079;45.958;12.492;2024-01-07T13:53:20;6.90;;;5.63;;
40373;SDS011;26079;45.958;12.492;2024-01-07T13:55:46;5.95;;;5.35;;
40373;SDS011;26079;45.958;12.492;2024-01-07T13:58:12;7.57;;;5.25;;
40373;SDS011;26079;45.958;12.492;2024-01-07T14:00:37;6.70;;;6.07;;
40373;SDS011;26079;45.958;12.492;2024-01-07T14:03:03;9.15;;;6.65;;
40373;SDS011;26079;45.958;12.492;2024-01-07T14:05:29;8.25;;;7.28;;
40373;SDS011;26079;45.958;12.492;2024-01-07T14:07:55;8.60;;;6.63;;
40373;SDS011;26079;45.958;12.492;2024-01-07T14:10:21;11.63;;;8.23;;
40373;SDS011;26079;45.958;12.492;2024-01-07T14:12:46;9.65;;;7.90;;
40373;SDS011;26079;45.958;12.492;2024-01-07T14:15:12;11.80;;;9.40;;
40373;SDS011;26079;45.958;12.492;2024-01-07T14:17:38;21.80;;;10.23;;
40373;SDS011;26079;45.958;12.492;2024-01-07T14:20:05;9.57;;;7.95;;
40373;SDS011;26079;45.958;12.492;2024-01-07T14:22:32;6.80;;;6.07;;
40373;SDS011;26079;45.958;12.492;2024-01-07T14:24:58;9.05;;;6.95;;
40373;SDS011;26079;45.958;12.492;2024-01-07T14:27:24;12.95;;;9.38;;
40373;SDS011;26079;45.958;12.492;2024-01-07T14:29:49;17.67;;;11.38;;
40373;SDS011;26079;45.958;12.492;2024-01-07T14:32:15;15.60;;;11.77;;
40373;SDS011;26079;45.958;12.492;2024-01-07T14:34:41;17.05;;;11.43;;
40373;SDS011;26079;45.958;12.492;2024-01-07T14:37:10;12.40;;;8.80;;